Grizzly Air Cargo 5130


KSMF
Sacramento International Airport
Sacramento, California, US
CYVR
Vancouver International Airport
Vancouver, , CA

Activity Log

Date Flight Route Aircraft Duration
11/05/2019 GRZ530 RBL J65 LMT J189 SEA PAE GRIZZ6 B738 1h 38m
09/26/2019 GRZ530 RBL J65 LMT J189 SEA PAE GRIZZ6 B738 2h 02m
08/31/2019 GRZ530 DUDES9 FMG J5 SEA J502 YYJ GOTOK4 B738 2h 04m

Route Details

Aircraft Information
Primary: Boeing 737-800BCF
Backup: Not Available
Route Data
Distance: 635nm
Sched. Duration: 2h 06m
Avg. Duration: 1h 82m (-25m)
Times Flown: 3
Recm'd Route: RBL J65 LMT J189 SEA PAE GRIZZ6
Planned Altitude: 36,000ft
Origin Wx: KSMF 312053Z 35006KT 9SM FEW250 25/04 A3007 RMK AO2 SLP181 T02500039 58019
Dest. Wx: CYVR 312100Z 26006KT 40SM FEW032 SCT240 BKN270 09/06 A3043 RMK SC1CI4CI3 SC TR SLP306
Notes:

Financial History
Total Freight: 91,872lbs
Average Load: 30,624lbs/flt
Fuel Used: 30,997lbs
Avg. Fuel Used: 10,332lbs/flt
Fuel Expense: $33,787
Avg. Fuel Expense: $11,262
Avg. Fuel Cost: $1.09/lbs
Total Gross Income: $136,889
Pilot Pay: $527
Total Expenses: $14,940
Total Revenue: $87,059
Average Revenue: $45,629.76